createdAt,value
2018-08-23T00:01:25.765Z,7.73
2018-08-23T00:03:54.524Z,7.87
2018-08-23T00:06:22.772Z,8.63
2018-08-23T00:08:51.640Z,7.90
2018-08-23T00:11:25.465Z,7.67
2018-08-23T00:13:53.732Z,7.80
2018-08-23T00:16:30.124Z,7.73
2018-08-23T00:18:58.423Z,7.33
2018-08-23T00:21:27.072Z,6.93
2018-08-23T00:24:05.950Z,7.53
2018-08-23T00:26:34.860Z,7.47
2018-08-23T00:29:03.032Z,8.57
2018-08-23T00:31:34.948Z,8.00
2018-08-23T00:34:03.108Z,7.20
2018-08-23T00:36:31.563Z,7.83
2018-08-23T00:38:59.770Z,10.27
2018-08-23T00:41:27.974Z,9.07
2018-08-23T00:43:56.169Z,8.37
2018-08-23T00:46:24.387Z,9.07
2018-08-23T00:48:52.596Z,8.17
2018-08-23T00:51:20.807Z,7.60
2018-08-23T00:53:54.555Z,8.80
2018-08-23T00:56:23.398Z,8.33
2018-08-23T00:58:56.900Z,8.33
2018-08-23T01:01:25.043Z,8.47
2018-08-23T01:03:53.264Z,7.83
2018-08-23T01:06:23.161Z,9.43
2018-08-23T01:08:51.357Z,9.07
2018-08-23T01:11:19.582Z,8.63
2018-08-23T01:13:47.840Z,7.93
2018-08-23T01:16:16.298Z,9.30
2018-08-23T01:18:44.468Z,8.70
2018-08-23T01:21:12.669Z,9.13
2018-08-23T01:23:42.716Z,10.50
2018-08-23T01:26:10.988Z,10.33
2018-08-23T01:28:39.214Z,10.63
2018-08-23T01:31:22.734Z,9.57
2018-08-23T01:33:55.197Z,10.00
2018-08-23T01:36:28.856Z,11.40
2018-08-23T01:38:57.068Z,10.43
2018-08-23T01:41:25.285Z,10.47
2018-08-23T01:43:53.471Z,9.70
2018-08-23T01:46:26.437Z,10.10
2018-08-23T01:48:54.666Z,9.93
2018-08-23T01:51:22.938Z,9.40
2018-08-23T01:53:51.156Z,9.60
2018-08-23T01:56:19.427Z,10.30
2018-08-23T01:58:47.648Z,10.83
2018-08-23T02:01:17.200Z,8.17
2018-08-23T02:03:45.643Z,10.20
2018-08-23T02:06:13.958Z,9.27
2018-08-23T02:08:43.851Z,10.10
2018-08-23T02:11:12.061Z,10.30
2018-08-23T02:13:40.270Z,11.37
2018-08-23T02:16:08.468Z,12.13
2018-08-23T02:18:36.685Z,13.27
2018-08-23T02:21:10.560Z,14.20
2018-08-23T02:23:43.881Z,13.23
2018-08-23T02:26:12.427Z,13.17
2018-08-23T02:28:43.411Z,13.27
2018-08-23T02:31:11.619Z,12.63
2018-08-23T02:33:39.866Z,14.90
2018-08-23T02:36:22.458Z,14.83
2018-08-23T02:38:57.736Z,14.60
2018-08-23T02:41:25.926Z,14.13
2018-08-23T02:43:54.176Z,14.47
2018-08-23T02:46:22.383Z,14.53
2018-08-23T02:48:50.599Z,13.87
2018-08-23T02:51:18.787Z,12.87
2018-08-23T02:53:48.176Z,11.17
2018-08-23T02:56:17.589Z,12.57
2018-08-23T02:59:01.093Z,12.93
2018-08-23T03:01:31.031Z,12.93
2018-08-23T03:04:04.908Z,12.20
2018-08-23T03:06:49.660Z,10.40
2018-08-23T03:09:19.168Z,13.00
2018-08-23T03:11:48.380Z,11.70
2018-08-23T03:14:17.903Z,11.50
2018-08-23T03:17:59.805Z,11.47
2018-08-23T03:20:28.016Z,10.63
2018-08-23T03:22:56.870Z,11.37
2018-08-23T03:25:25.972Z,10.47
2018-08-23T03:27:54.861Z,10.97
2018-08-23T03:30:23.673Z,11.10
2018-08-23T03:32:51.875Z,12.97
2018-08-23T03:35:20.078Z,14.00
2018-08-23T03:37:48.276Z,11.63
2018-08-23T03:40:17.174Z,13.67
2018-08-23T03:42:45.436Z,11.37
2018-08-23T03:45:19.030Z,9.20
2018-08-23T03:47:50.279Z,9.03
2018-08-23T03:50:18.503Z,9.37
2018-08-23T03:52:47.936Z,10.83
2018-08-23T03:55:21.503Z,11.20
2018-08-23T03:57:51.372Z,10.27
2018-08-23T04:00:26.112Z,10.33
2018-08-23T04:02:54.964Z,10.80
2018-08-23T04:05:23.171Z,10.03
2018-08-23T04:07:51.426Z,9.27
2018-08-23T04:10:19.644Z,8.90
2018-08-23T04:12:47.815Z,8.63
2018-08-23T04:15:24.170Z,7.30
2018-08-23T04:17:52.440Z,7.13
2018-08-23T04:20:20.595Z,6.40
2018-08-23T04:22:48.800Z,7.37
2018-08-23T04:25:17.053Z,6.63
2018-08-23T04:27:45.262Z,7.67
2018-08-23T04:30:13.480Z,6.97
2018-08-23T04:32:48.027Z,6.83
2018-08-23T04:35:22.044Z,6.83
2018-08-23T04:37:50.815Z,7.63
2018-08-23T04:40:19.110Z,7.57
2018-08-23T04:42:47.436Z,7.37
2018-08-23T04:45:23.115Z,7.27
2018-08-23T04:50:29.273Z,8.00
2018-08-23T04:52:57.551Z,7.43
2018-08-23T04:55:26.496Z,7.90
2018-08-23T04:57:55.153Z,8.47
2018-08-23T05:00:23.341Z,7.63
2018-08-23T05:02:51.704Z,7.97
2018-08-23T05:05:19.866Z,7.00
2018-08-23T05:07:48.280Z,8.47
2018-08-23T05:10:16.485Z,8.07
2018-08-23T05:12:44.647Z,8.50
2018-08-23T05:15:12.856Z,8.20
2018-08-23T05:17:41.011Z,7.00
2018-08-23T05:20:09.465Z,7.40
2018-08-23T05:22:38.252Z,7.97
2018-08-23T05:25:37.467Z,8.23
2018-08-23T05:28:18.925Z,8.27
2018-08-23T05:30:47.748Z,7.53
2018-08-23T05:33:18.953Z,8.23
2018-08-23T05:35:47.252Z,7.33
2018-08-23T05:38:16.167Z,7.50
2018-08-23T05:40:44.796Z,9.43
2018-08-23T05:43:13.683Z,9.73
2018-08-23T05:45:47.468Z,8.47
2018-08-23T05:48:31.658Z,9.57
2018-08-23T05:51:07.412Z,9.83
2018-08-23T05:53:42.143Z,10.27
2018-08-23T05:56:10.410Z,9.60
2018-08-23T05:58:38.729Z,9.40
2018-08-23T06:01:07.039Z,8.70
2018-08-23T06:03:36.906Z,9.27
2018-08-23T06:06:05.070Z,8.97
2018-08-23T06:08:33.289Z,9.47
2018-08-23T06:11:07.292Z,11.30
2018-08-23T06:13:35.620Z,10.33
2018-08-23T06:16:03.864Z,8.57
2018-08-23T06:18:32.059Z,9.07
2018-08-23T06:21:00.268Z,9.53
2018-08-23T06:23:56.800Z,11.27
2018-08-23T06:26:37.027Z,11.00
2018-08-23T06:29:05.259Z,10.70
2018-08-23T06:31:33.455Z,11.03
2018-08-23T06:34:01.769Z,11.30
2018-08-23T06:36:33.770Z,12.50
2018-08-23T06:39:01.977Z,11.93
2018-08-23T06:41:30.277Z,12.60
2018-08-23T06:43:58.479Z,13.60
2018-08-23T06:46:26.726Z,14.50
2018-08-23T06:48:54.952Z,14.57
2018-08-23T06:51:23.147Z,14.50
2018-08-23T06:53:53.125Z,16.83
2018-08-23T06:56:21.310Z,19.50
2018-08-23T06:58:49.548Z,18.27
2018-08-23T07:01:32.806Z,19.47
2018-08-23T07:04:05.169Z,18.67
2018-08-23T07:06:34.328Z,18.80
2018-08-23T07:09:03.370Z,19.73
2018-08-23T07:11:31.565Z,18.80
2018-08-23T07:14:05.166Z,17.23
2018-08-23T07:16:33.363Z,18.13
2018-08-23T07:19:03.251Z,19.97
2018-08-23T07:21:31.466Z,18.53
2018-08-23T07:23:59.701Z,19.37
2018-08-23T07:26:27.958Z,17.23
2018-08-23T07:28:56.115Z,19.13
2018-08-23T07:31:24.378Z,19.23
2018-08-23T07:33:52.607Z,20.33
2018-08-23T07:36:28.620Z,19.37
2018-08-23T07:38:57.187Z,22.20
2018-08-23T07:41:25.393Z,20.03
2018-08-23T07:43:53.585Z,20.77
2018-08-23T07:46:21.871Z,19.40
2018-08-23T07:48:50.075Z,22.57
2018-08-23T07:51:22.163Z,23.80
2018-08-23T07:53:50.399Z,19.87
2018-08-23T07:56:27.087Z,16.90
2018-08-23T07:58:56.419Z,20.87
2018-08-23T08:01:27.139Z,19.17
2018-08-23T08:03:55.826Z,19.80
2018-08-23T08:06:25.095Z,18.20
2018-08-23T08:08:54.781Z,20.00
2018-08-23T08:11:22.972Z,20.63
2018-08-23T08:13:56.794Z,21.77
2018-08-23T08:16:29.199Z,20.77
2018-08-23T08:18:57.428Z,20.20
2018-08-23T08:21:25.621Z,24.17
2018-08-23T08:23:57.327Z,24.07
2018-08-23T08:26:27.309Z,28.53
2018-08-23T08:28:55.513Z,27.63
2018-08-23T08:31:23.717Z,23.30
2018-08-23T08:33:54.624Z,23.33
2018-08-23T08:36:22.915Z,22.77
2018-08-23T08:38:51.124Z,22.50
2018-08-23T08:41:19.340Z,20.50
2018-08-23T08:43:47.575Z,21.07
2018-08-23T08:46:15.775Z,21.87
2018-08-23T08:48:43.980Z,21.50
2018-08-23T08:51:24.721Z,22.17
2018-08-23T08:53:53.919Z,20.70
2018-08-23T08:56:35.054Z,24.10
2018-08-23T08:59:03.255Z,23.03
2018-08-23T09:01:31.764Z,20.17
2018-08-23T09:03:59.960Z,19.73
2018-08-23T09:06:33.685Z,21.53
2018-08-23T09:09:11.961Z,19.40
2018-08-23T09:11:40.915Z,19.70
2018-08-23T09:14:09.187Z,18.43
2018-08-23T09:16:37.392Z,17.97
2018-08-23T09:19:05.880Z,17.63
2018-08-23T09:21:34.371Z,17.47
2018-08-23T09:24:18.712Z,17.93
2018-08-23T09:26:46.940Z,15.93
2018-08-23T09:29:27.505Z,15.73
2018-08-23T09:31:55.792Z,15.60
2018-08-23T09:34:24.058Z,14.80
2018-08-23T09:36:52.260Z,15.47
2018-08-23T09:39:20.473Z,14.67
2018-08-23T09:41:48.681Z,14.53
2018-08-23T09:44:16.862Z,16.77
2018-08-23T09:46:51.724Z,14.83
2018-08-23T09:49:20.916Z,13.37
2018-08-23T09:51:49.164Z,15.87
2018-08-23T09:54:21.559Z,14.63
2018-08-23T09:56:49.815Z,14.50
2018-08-23T09:59:18.763Z,11.97
2018-08-23T10:02:50.080Z,9.67
2018-08-23T10:05:23.768Z,12.07
2018-08-23T10:07:57.424Z,12.77
2018-08-23T10:10:31.248Z,10.83
2018-08-23T10:13:04.943Z,11.97
2018-08-23T10:15:49.288Z,13.90
2018-08-23T10:18:26.176Z,10.07
2018-08-23T10:21:02.390Z,9.77
2018-08-23T10:23:30.564Z,6.13
2018-08-23T10:26:00.287Z,5.23
2018-08-23T10:28:32.717Z,4.80
2018-08-23T10:31:00.908Z,4.60
2018-08-23T10:33:29.083Z,4.13
2018-08-23T10:35:57.437Z,4.33
2018-08-23T10:38:26.887Z,5.10
2018-08-23T10:40:59.338Z,4.67
2018-08-23T10:43:32.976Z,3.87
2018-08-23T10:46:04.025Z,4.50
2018-08-23T10:48:32.252Z,5.00
2018-08-23T10:51:00.548Z,4.47
2018-08-23T10:53:28.746Z,4.43
2018-08-23T10:55:56.930Z,4.90
2018-08-23T10:58:25.168Z,5.83
2018-08-23T11:00:53.421Z,4.87
2018-08-23T11:03:21.668Z,4.70
2018-08-23T11:05:49.850Z,4.33
2018-08-23T11:08:20.588Z,4.03
2018-08-23T11:10:54.008Z,4.50
2018-08-23T11:13:27.627Z,3.93
2018-08-23T11:16:01.388Z,3.70
2018-08-23T11:18:35.161Z,3.80
2018-08-23T11:21:03.378Z,3.07
2018-08-23T11:23:31.511Z,2.77
2018-08-23T11:25:59.696Z,2.80
2018-08-23T11:28:27.939Z,2.50
2018-08-23T11:33:46.669Z,2.60
2018-08-23T11:36:14.847Z,2.90
2018-08-23T11:38:43.064Z,2.30
2018-08-23T11:41:11.308Z,2.30
2018-08-23T11:43:39.487Z,2.63
2018-08-23T11:46:13.229Z,2.30
2018-08-23T11:48:42.110Z,2.27
2018-08-23T11:51:10.487Z,2.40
2018-08-23T11:53:38.838Z,2.17
2018-08-23T11:56:06.975Z,2.20
2018-08-23T11:58:35.222Z,1.93
2018-08-23T12:01:08.655Z,2.80
2018-08-23T12:03:37.429Z,2.27
2018-08-23T12:06:05.960Z,2.60
2018-08-23T12:08:34.152Z,2.27
2018-08-23T12:11:02.376Z,2.10
2018-08-23T12:13:30.551Z,2.10
2018-08-23T12:15:58.787Z,2.10
2018-08-23T12:18:32.783Z,1.90
2018-08-23T12:21:00.968Z,2.07
2018-08-23T12:23:29.154Z,1.67
2018-08-23T12:25:57.456Z,1.83
2018-08-23T12:28:31.066Z,1.80
2018-08-23T12:30:59.296Z,2.30
2018-08-23T12:33:27.535Z,1.40
2018-08-23T12:35:55.760Z,1.33
2018-08-23T12:38:29.290Z,1.53
2018-08-23T12:41:02.894Z,1.67
2018-08-23T12:43:36.428Z,1.60
2018-08-23T12:46:05.243Z,1.60
2018-08-23T12:48:34.430Z,1.50
2018-08-23T12:51:02.708Z,1.40
2018-08-23T12:53:30.942Z,1.80
2018-08-23T12:55:59.210Z,1.40
2018-08-23T12:58:27.424Z,1.70
2018-08-23T13:00:55.632Z,1.67
2018-08-23T13:03:23.880Z,1.87
2018-08-23T13:05:52.091Z,1.47
2018-08-23T13:08:20.299Z,1.70
2018-08-23T13:10:48.486Z,1.60
2018-08-23T13:13:16.668Z,1.50
2018-08-23T13:15:44.836Z,1.50
2018-08-23T13:18:13.106Z,1.70
2018-08-23T13:20:41.285Z,1.60
2018-08-23T13:23:09.468Z,1.50
2018-08-23T13:25:41.913Z,1.40
2018-08-23T13:28:10.136Z,1.60
2018-08-23T13:30:38.336Z,1.73
2018-08-23T13:33:06.528Z,1.87
2018-08-23T13:35:34.813Z,1.83
2018-08-23T13:38:02.891Z,1.80
2018-08-23T13:40:31.085Z,2.27
2018-08-23T13:42:59.322Z,2.50
2018-08-23T13:45:27.532Z,2.10
2018-08-23T13:47:55.757Z,2.20
2018-08-23T13:50:23.963Z,2.20
2018-08-23T13:52:52.224Z,1.83
2018-08-23T13:55:20.464Z,2.30
2018-08-23T13:57:48.700Z,2.27
2018-08-23T14:00:22.243Z,2.60
2018-08-23T14:02:50.412Z,2.73
2018-08-23T14:05:18.612Z,3.20
2018-08-23T14:07:46.854Z,3.13
2018-08-23T14:10:14.970Z,2.87
2018-08-23T14:12:43.152Z,2.27
2018-08-23T14:15:16.866Z,2.73
2018-08-23T14:17:45.056Z,2.30
2018-08-23T14:20:13.199Z,2.57
2018-08-23T14:22:41.424Z,2.90
2018-08-23T14:25:09.607Z,2.60
2018-08-23T14:27:37.803Z,3.10
2018-08-23T14:30:06.049Z,3.30
2018-08-23T14:33:05.162Z,3.23
2018-08-23T14:35:33.277Z,3.47
2018-08-23T14:38:01.469Z,3.23
2018-08-23T14:40:29.775Z,2.60
2018-08-23T14:42:57.914Z,2.87
2018-08-23T14:45:31.265Z,2.90
2018-08-23T14:48:04.918Z,3.13
2018-08-23T14:50:47.679Z,3.10
2018-08-23T14:53:20.180Z,2.90
2018-08-23T14:55:53.707Z,3.10
2018-08-23T14:58:21.921Z,3.17
2018-08-23T15:00:50.137Z,3.23
2018-08-23T15:03:18.360Z,3.17
2018-08-23T15:05:46.615Z,3.13
2018-08-23T15:08:14.871Z,2.93
2018-08-23T15:10:43.061Z,3.23
2018-08-23T15:13:11.299Z,3.53
2018-08-23T15:15:44.884Z,3.63
2018-08-23T15:18:13.084Z,3.37
2018-08-23T15:20:41.298Z,3.67
2018-08-23T15:23:09.915Z,3.47
2018-08-23T15:25:38.278Z,4.20
2018-08-23T15:28:06.694Z,4.20
2018-08-23T15:30:34.866Z,4.80
2018-08-23T15:33:03.090Z,3.93
2018-08-23T15:35:31.252Z,4.30
2018-08-23T15:37:59.504Z,4.27
2018-08-23T15:40:27.781Z,4.50
2018-08-23T15:42:56.065Z,3.83
2018-08-23T15:45:24.275Z,3.57
2018-08-23T15:47:52.461Z,3.90
2018-08-23T15:50:22.897Z,3.87
2018-08-23T15:52:51.899Z,3.57
2018-08-23T15:55:20.795Z,4.13
2018-08-23T15:57:48.856Z,4.00
2018-08-23T16:00:17.844Z,3.33
2018-08-23T16:02:46.862Z,3.50
2018-08-23T16:05:15.100Z,3.47
2018-08-23T16:07:43.344Z,3.20
2018-08-23T16:10:11.839Z,3.60
2018-08-23T16:12:40.044Z,3.13
2018-08-23T16:15:14.052Z,3.42
2018-08-23T16:17:47.659Z,3.50
2018-08-23T16:20:21.183Z,3.47
2018-08-23T16:22:49.379Z,2.63
2018-08-23T16:25:17.559Z,3.07
2018-08-23T16:27:45.761Z,2.67
2018-08-23T16:30:13.951Z,4.53
2018-08-23T16:32:42.161Z,3.50
2018-08-23T16:35:10.344Z,3.20
2018-08-23T16:37:38.557Z,3.37
2018-08-23T16:40:06.692Z,2.77
2018-08-23T16:42:34.916Z,2.60
2018-08-23T16:45:03.141Z,3.83
2018-08-23T16:47:31.303Z,3.10
2018-08-23T16:49:59.503Z,3.63
2018-08-23T16:52:27.719Z,3.53
2018-08-23T16:54:55.911Z,3.50
2018-08-23T16:57:24.142Z,3.83
2018-08-23T16:59:52.695Z,4.07
2018-08-23T17:02:20.896Z,4.10
2018-08-23T17:04:49.092Z,3.63
2018-08-23T17:07:17.593Z,3.90
2018-08-23T17:09:45.924Z,4.03
2018-08-23T17:12:14.157Z,4.57
2018-08-23T17:14:42.343Z,4.80
2018-08-23T17:17:16.053Z,4.70
2018-08-23T17:19:44.219Z,4.70
2018-08-23T17:22:12.444Z,4.93
2018-08-23T17:24:40.871Z,4.50
2018-08-23T17:27:08.915Z,4.77
2018-08-23T17:29:37.271Z,4.50
2018-08-23T17:32:05.505Z,4.83
2018-08-23T17:34:33.693Z,4.67
2018-08-23T17:37:01.901Z,5.00
2018-08-23T17:39:30.080Z,4.57
2018-08-23T17:41:58.307Z,4.10
2018-08-23T17:44:26.488Z,3.80
2018-08-23T17:46:54.699Z,3.80
2018-08-23T17:49:22.922Z,4.40
2018-08-23T17:51:51.075Z,3.70
2018-08-23T17:54:19.267Z,3.60
2018-08-23T17:56:47.453Z,3.90
2018-08-23T17:59:16.059Z,3.40
2018-08-23T18:01:44.296Z,2.90
2018-08-23T18:04:13.524Z,3.00
2018-08-23T18:06:41.780Z,3.07
2018-08-23T18:09:11.753Z,3.03
2018-08-23T18:11:40.084Z,2.97
2018-08-23T18:14:08.367Z,3.30
2018-08-23T18:17:08.510Z,2.70
2018-08-23T18:19:36.738Z,2.57
2018-08-23T18:22:05.083Z,2.47
2018-08-23T18:24:33.288Z,2.57
2018-08-23T18:27:01.543Z,2.60
2018-08-23T18:29:31.238Z,2.27
2018-08-23T18:31:59.455Z,2.43
2018-08-23T18:34:27.635Z,2.07
2018-08-23T18:36:55.797Z,2.10
2018-08-23T18:39:23.976Z,1.80
2018-08-23T18:41:52.140Z,2.10
2018-08-23T18:44:20.357Z,2.20
2018-08-23T18:46:48.610Z,2.10
2018-08-23T18:49:16.785Z,1.73
2018-08-23T18:51:45.052Z,2.10
2018-08-23T18:54:13.261Z,2.00
2018-08-23T18:56:41.378Z,2.00
2018-08-23T18:59:09.547Z,1.60
2018-08-23T19:01:37.712Z,1.97
2018-08-23T19:04:05.901Z,1.57
2018-08-23T19:06:34.067Z,2.17
2018-08-23T19:09:02.891Z,1.80
2018-08-23T19:11:31.090Z,1.80
2018-08-23T19:13:59.280Z,1.57
2018-08-23T19:16:32.833Z,2.00
2018-08-23T19:19:01.248Z,1.50
2018-08-23T19:21:29.485Z,1.80
2018-08-23T19:23:57.665Z,2.00
2018-08-23T19:26:25.849Z,1.60
2018-08-23T19:28:54.031Z,1.80
2018-08-23T19:31:22.299Z,1.60
2018-08-23T19:33:50.455Z,1.50
2018-08-23T19:36:18.747Z,1.67
2018-08-23T19:38:46.967Z,1.50
2018-08-23T19:41:15.169Z,1.40
2018-08-23T19:43:43.343Z,1.70
2018-08-23T19:46:16.979Z,1.50
2018-08-23T19:48:46.434Z,1.43
2018-08-23T19:51:14.599Z,1.50
2018-08-23T19:53:42.837Z,1.20
2018-08-23T19:56:11.028Z,1.30
2018-08-23T19:58:39.191Z,1.40
2018-08-23T20:01:07.379Z,1.40
2018-08-23T20:03:35.645Z,1.50
2018-08-23T20:06:03.911Z,1.40
2018-08-23T20:11:06.708Z,1.60
2018-08-23T20:13:34.919Z,1.37
2018-08-23T20:16:03.133Z,1.40
2018-08-23T20:18:31.321Z,1.40
2018-08-23T20:20:59.519Z,1.30
2018-08-23T20:23:27.721Z,1.37
2018-08-23T20:25:55.895Z,1.40
2018-08-23T20:28:24.068Z,1.20
2018-08-23T20:30:52.340Z,1.50
2018-08-23T20:33:20.615Z,1.40
2018-08-23T20:35:48.825Z,1.80
2018-08-23T20:38:17.060Z,1.23
2018-08-23T20:40:45.267Z,1.50
2018-08-23T20:43:13.487Z,1.80
2018-08-23T20:45:41.918Z,1.50
2018-08-23T20:48:10.205Z,2.90
2018-08-23T20:50:38.424Z,1.97
2018-08-23T20:53:06.605Z,1.50
2018-08-23T20:55:34.807Z,1.50
2018-08-23T20:58:03.048Z,1.50
2018-08-23T21:00:31.298Z,1.60
2018-08-23T21:02:59.544Z,1.43
2018-08-23T21:05:27.760Z,1.60
2018-08-23T21:07:55.968Z,1.73
2018-08-23T21:10:24.203Z,1.33
2018-08-23T21:12:52.410Z,1.23
2018-08-23T21:15:20.575Z,1.50
2018-08-23T21:17:48.936Z,1.50
2018-08-23T21:20:17.125Z,1.20
2018-08-23T21:22:45.287Z,1.43
2018-08-23T21:25:13.476Z,1.20
2018-08-23T21:27:41.655Z,1.57
2018-08-23T21:30:09.918Z,1.47
2018-08-23T21:32:38.115Z,3.30
2018-08-23T21:35:06.328Z,2.20
2018-08-23T21:37:34.494Z,1.53
2018-08-23T21:40:02.699Z,1.33
2018-08-23T21:42:30.894Z,1.10
2018-08-23T21:44:59.114Z,1.40
2018-08-23T21:47:27.314Z,1.40
2018-08-23T21:49:55.560Z,1.33
2018-08-23T21:52:23.812Z,1.17
2018-08-23T21:54:51.984Z,1.30
2018-08-23T21:57:20.149Z,1.07
2018-08-23T21:59:48.662Z,1.30
2018-08-23T22:02:17.886Z,1.20
2018-08-23T22:04:51.489Z,1.40
2018-08-23T22:07:20.256Z,1.40
2018-08-23T22:09:51.501Z,1.40
2018-08-23T22:12:21.064Z,1.17
2018-08-23T22:14:49.955Z,1.20
2018-08-23T22:17:18.845Z,1.20
2018-08-23T22:19:47.020Z,1.30
2018-08-23T22:22:15.264Z,1.30
2018-08-23T22:24:43.512Z,1.27
2018-08-23T22:27:11.680Z,1.30
2018-08-23T22:29:40.153Z,1.07
2018-08-23T22:32:09.076Z,0.93
2018-08-23T22:34:37.340Z,1.20
2018-08-23T22:37:05.488Z,1.30
2018-08-23T22:39:33.730Z,1.10
2018-08-23T22:42:01.944Z,1.20
2018-08-23T22:44:30.148Z,1.23
2018-08-23T22:49:33.035Z,0.80
2018-08-23T22:52:01.190Z,1.30
2018-08-23T22:54:29.375Z,1.10
2018-08-23T22:56:57.617Z,1.20
2018-08-23T22:59:27.200Z,1.03
2018-08-23T23:01:55.439Z,1.00
2018-08-23T23:04:26.480Z,1.33
2018-08-23T23:06:54.741Z,1.03
2018-08-23T23:09:22.970Z,1.20
2018-08-23T23:11:51.150Z,1.20
2018-08-23T23:14:19.383Z,1.03
2018-08-23T23:16:47.556Z,1.30
2018-08-23T23:19:15.734Z,1.00
2018-08-23T23:21:43.940Z,1.10
2018-08-23T23:24:17.555Z,1.13
2018-08-23T23:26:45.799Z,1.20
2018-08-23T23:29:14.295Z,1.20
2018-08-23T23:31:42.486Z,1.40
2018-08-23T23:34:10.695Z,1.17
2018-08-23T23:36:38.874Z,1.50
2018-08-23T23:39:07.697Z,1.30
2018-08-23T23:41:35.851Z,1.20
2018-08-23T23:44:04.042Z,1.33
2018-08-23T23:46:32.240Z,1.10
2018-08-23T23:49:00.460Z,1.57
2018-08-23T23:51:28.607Z,1.40
2018-08-23T23:53:56.818Z,1.27
2018-08-23T23:56:25.158Z,1.37
2018-08-23T23:58:53.339Z,1.50
